^^
Saratoga-Weather Station Historical Data
Daily Summary for December 07, 2021 Units:  Both    English   Metric
Daily Weekly Monthly Yearly Custom
  High: Low: Average:
Temperature: 42.4 °F /  5.8 °C 37.4 °F /  3 °C 40.1 °F /  4.5 °C
Dew Point: 39.6 °F /  4.2 °C 35.4 °F /  1.9 °C 37.2 °F /  2.9 °C
Humidity: 94% 84% 90%
Wind Speed: 15mph /  24.1km/h - 3.4mph /  5.4km/h
Wind Gust: 18mph /  29km/h - -
Wind- - South
Pressure: 29.9 in /  1013.5 hPa 29.4 in /  996.6 hPa -
Precipitation: 0.16 in /  4.1 mm    
Historical Graphs
 
 
Tabular Data for December 07, 2021
Time Temperature Dew Point Pressure Wind Wind Speed Wind Gust Humidity Rainfall Rate (Hourly) solar
00:04 39.6 °F /  4.2 °C 37.9 °F /  3.3 °C 29.8in /  1007.8hPa West 4mph /  6.4km/h 6mph /  9.7km/h 94% 0.03in /  0.8mm 0 W/m2
00:09 39.6 °F /  4.2 °C 37.9 °F /  3.3 °C 29.8in /  1007.8hPa WNW 0.9mph /  1.4km/h 10mph /  16.1km/h 94% 0.03in /  0.8mm 0 W/m2
00:14 39.7 °F /  4.3 °C 38.1 °F /  3.4 °C 29.8in /  1007.5hPa WSW 2mph /  3.2km/h 6mph /  9.7km/h 94% 0.04in /  1.0mm 0 W/m2
00:19 39.7 °F /  4.3 °C 38.1 °F /  3.4 °C 29.8in /  1007.8hPa WNW 2.9mph /  4.7km/h 6mph /  9.7km/h 94% 0.04in /  1.0mm 0 W/m2
00:24 39.9 °F /  4.4 °C 38.3 °F /  3.5 °C 29.8in /  1007.8hPa West 2mph /  3.2km/h 13mph /  20.9km/h 94% 0.04in /  1.0mm 0 W/m2
00:29 40.1 °F /  4.5 °C 38.5 °F /  3.6 °C 29.8in /  1007.8hPa NW 2mph /  3.2km/h 10mph /  16.1km/h 94% 0.05in /  1.3mm 0 W/m2
00:34 40.3 °F /  4.6 °C 38.7 °F /  3.7 °C 29.8in /  1008.1hPa WSW 6.9mph /  11.1km/h 13mph /  20.9km/h 94% 0.05in /  1.3mm 0 W/m2
00:39 40.5 °F /  4.7 °C 38.8 °F /  3.8 °C 29.8in /  1007.8hPa WNW 4mph /  6.4km/h 8mph /  12.9km/h 94% 0.05in /  1.3mm 0 W/m2
00:44 40.5 °F /  4.7 °C 38.8 °F /  3.8 °C 29.8in /  1008.1hPa NW 8.9mph /  14.3km/h 10mph /  16.1km/h 94% 0.06in /  1.5mm 0 W/m2
00:49 40.6 °F /  4.8 °C 39 °F /  3.9 °C 29.8in /  1008.5hPa WNW 6mph /  9.7km/h 13mph /  20.9km/h 94% 0.06in /  1.5mm 0 W/m2
00:54 40.6 °F /  4.8 °C 39 °F /  3.9 °C 29.8in /  1008.5hPa WNW 6mph /  9.7km/h 12mph /  19.3km/h 94% 0.07in /  1.8mm 0 W/m2
00:59 40.6 °F /  4.8 °C 39 °F /  3.9 °C 29.8in /  1008.5hPa West 8.9mph /  14.3km/h 13mph /  20.9km/h 94% 0.06in /  1.5mm 0 W/m2
01:04 40.8 °F /  4.9 °C 39.2 °F /  4 °C 29.8in /  1008.5hPa West 13mph /  20.9km/h 16mph /  25.7km/h 94% 0.06in /  1.5mm 0 W/m2
01:09 40.6 °F /  4.8 °C 38.8 °F /  3.8 °C 29.8in /  1008.5hPa WSW 8.1mph /  13km/h 10mph /  16.1km/h 93% 0.07in /  1.8mm 0 W/m2
01:14 40.6 °F /  4.8 °C 38.8 °F /  3.8 °C 29.8in /  1008.5hPa West 2mph /  3.2km/h 15mph /  24.1km/h 93% 0.06in /  1.5mm 0 W/m2
01:19 40.5 °F /  4.7 °C 38.7 °F /  3.7 °C 29.8in /  1008.5hPa Calm   3mph /  4.8km/h 93% 0.06in /  1.5mm 0 W/m2
01:24 40.5 °F /  4.7 °C 38.7 °F /  3.7 °C 29.8in /  1008.5hPa WNW 8.1mph /  13km/h 9mph /  14.5km/h 93% 0.06in /  1.5mm 0 W/m2
01:29 40.6 °F /  4.8 °C 38.8 °F /  3.8 °C 29.8in /  1008.8hPa WSW 0.9mph /  1.4km/h 5mph /  8km/h 93% 0.06in /  1.5mm 0 W/m2
01:34 40.6 °F /  4.8 °C 38.8 °F /  3.8 °C 29.8in /  1008.8hPa West 4mph /  6.4km/h 17mph /  27.4km/h 93% 0.06in /  1.5mm 0 W/m2
01:39 41 °F /  5 °C 39.2 °F /  4 °C 29.8in /  1008.8hPa WNW 10.1mph /  16.3km/h 11mph /  17.7km/h 93% 0.06in /  1.5mm 0 W/m2
01:44 41.2 °F /  5.1 °C 39.4 °F /  4.1 °C 29.8in /  1008.8hPa West 4mph /  6.4km/h 17mph /  27.4km/h 93% 0.04in /  1.0mm 0 W/m2
01:49 41.4 °F /  5.2 °C 39.6 °F /  4.2 °C 29.8in /  1008.8hPa WNW 15mph /  24.1km/h 18mph /  29km/h 93% 0.03in /  0.8mm 0 W/m2
01:54 41.4 °F /  5.2 °C 39.2 °F /  4 °C 29.8in /  1009.1hPa West 6.9mph /  11.1km/h 14mph /  22.5km/h 92% 0.02in /  0.5mm 0 W/m2
01:59 40.6 °F /  4.8 °C 37.9 °F /  3.3 °C 29.8in /  1009.1hPa WNW 10.1mph /  16.3km/h 18mph /  29km/h 90% 0.03in /  0.8mm 0 W/m2
02:04 40.3 °F /  4.6 °C 37.9 °F /  3.3 °C 29.8in /  1008.8hPa NNW 0.9mph /  1.4km/h 7mph /  11.3km/h 91% 0.03in /  0.8mm 0 W/m2
02:09 40.1 °F /  4.5 °C 37.9 °F /  3.3 °C 29.8in /  1009.1hPa West 2.9mph /  4.7km/h 18mph /  29km/h 92% 0.02in /  0.5mm 0 W/m2
02:14 40.3 °F /  4.6 °C 38.5 °F /  3.6 °C 29.8in /  1009.1hPa WNW 2.9mph /  4.7km/h 8mph /  12.9km/h 93% 0.03in /  0.8mm 0 W/m2
02:19 40.6 °F /  4.8 °C 38.8 °F /  3.8 °C 29.8in /  1009.1hPa WNW 2mph /  3.2km/h 16mph /  25.7km/h 93% 0.03in /  0.8mm 0 W/m2
02:24 40.6 °F /  4.8 °C 38.5 °F /  3.6 °C 29.8in /  1009.1hPa WNW 2.9mph /  4.7km/h 11mph /  17.7km/h 92% 0.03in /  0.8mm 0 W/m2
02:29 40.6 °F /  4.8 °C 38.5 °F /  3.6 °C 29.8in /  1009.5hPa WSW 4.9mph /  7.9km/h 16mph /  25.7km/h 92% 0.03in /  0.8mm 0 W/m2
02:34 40.5 °F /  4.7 °C 38.3 °F /  3.5 °C 29.8in /  1009.1hPa WNW 4.9mph /  7.9km/h 13mph /  20.9km/h 92% 0.03in /  0.8mm 0 W/m2
02:39 40.5 °F /  4.7 °C 38.1 °F /  3.4 °C 29.8in /  1009.5hPa NW 4.9mph /  7.9km/h 11mph /  17.7km/h 91% 0.03in /  0.8mm 0 W/m2
02:44 40.5 °F /  4.7 °C 38.1 °F /  3.4 °C 29.8in /  1009.5hPa West 6.9mph /  11.1km/h 9mph /  14.5km/h 91% 0.03in /  0.8mm 0 W/m2
02:49 40.3 °F /  4.6 °C 37.9 °F /  3.3 °C 29.8in /  1009.5hPa West 6.9mph /  11.1km/h 10mph /  16.1km/h 91% 0.03in /  0.8mm 0 W/m2
02:54 40.3 °F /  4.6 °C 37.9 °F /  3.3 °C 29.8in /  1009.8hPa West 8.1mph /  13km/h 9mph /  14.5km/h 91% 0.02in /  0.5mm 0 W/m2
02:59 40.3 °F /  4.6 °C 37.9 °F /  3.3 °C 29.8in /  1009.8hPa SW 8.9mph /  14.3km/h 10mph /  16.1km/h 91% 0.02in /  0.5mm 0 W/m2
03:04 40.1 °F /  4.5 °C 37.8 °F /  3.2 °C 29.8in /  1009.5hPa West 6.9mph /  11.1km/h 7mph /  11.3km/h 91% 0.01in /  0.2mm 0 W/m2
03:09 39.9 °F /  4.4 °C 37.6 °F /  3.1 °C 29.8in /  1009.5hPa WNW 2.9mph /  4.7km/h 8mph /  12.9km/h 91% 0.01in /  0.2mm 0 W/m2
03:14 39.9 °F /  4.4 °C 37.6 °F /  3.1 °C 29.8in /  1009.5hPa West 8.1mph /  13km/h 9mph /  14.5km/h 91% 0in /  0.0mm 0 W/m2
03:19 39.7 °F /  4.3 °C 37.4 °F /  3 °C 29.8in /  1009.8hPa WNW 4mph /  6.4km/h 11mph /  17.7km/h 91% 0in /  0.0mm 0 W/m2
03:24 39.7 °F /  4.3 °C 37.4 °F /  3 °C 29.8in /  1009.8hPa NW 11mph /  17.7km/h 11mph /  17.7km/h 91% 0in /  0.0mm 0 W/m2
03:29 39.6 °F /  4.2 °C 37.2 °F /  2.9 °C 29.8in /  1009.8hPa West 8.9mph /  14.3km/h 13mph /  20.9km/h 91% 0in /  0.0mm 0 W/m2
03:34 39.6 °F /  4.2 °C 36.9 °F /  2.7 °C 29.8in /  1009.8hPa West 6mph /  9.7km/h 9mph /  14.5km/h 90% 0in /  0.0mm 0 W/m2
03:40 39.6 °F /  4.2 °C 36.9 °F /  2.7 °C 29.8in /  1010.2hPa West 8.1mph /  13km/h 10mph /  16.1km/h 90% 0in /  0.0mm 0 W/m2
03:45 39.4 °F /  4.1 °C 36.7 °F /  2.6 °C 29.8in /  1010.2hPa WSW 8.1mph /  13km/h 9mph /  14.5km/h 90% 0in /  0.0mm 0 W/m2
03:50 39.4 °F /  4.1 °C 36.5 °F /  2.5 °C 29.8in /  1010.2hPa WNW 2.9mph /  4.7km/h 7mph /  11.3km/h 89% 0in /  0.0mm 0 W/m2
03:55 39 °F /  3.9 °C 36.1 °F /  2.3 °C 29.8in /  1010.5hPa West 2.9mph /  4.7km/h 6mph /  9.7km/h 89% 0in /  0.0mm 0 W/m2
04:00 39 °F /  3.9 °C 36.3 °F /  2.4 °C 29.8in /  1010.5hPa WSW 2.9mph /  4.7km/h 7mph /  11.3km/h 90% 0in /  0.0mm 0 W/m2
04:05 38.8 °F /  3.8 °C 36.1 °F /  2.3 °C 29.8in /  1010.5hPa WNW 2mph /  3.2km/h 6mph /  9.7km/h 90% 0in /  0.0mm 0 W/m2
04:10 38.8 °F /  3.8 °C 36.5 °F /  2.5 °C 29.9in /  1010.8hPa WNW 2.9mph /  4.7km/h 8mph /  12.9km/h 91% 0in /  0.0mm 0 W/m2
04:15 38.8 °F /  3.8 °C 36.5 °F /  2.5 °C 29.9in /  1010.8hPa WSW 6.9mph /  11.1km/h 8mph /  12.9km/h 91% 0in /  0.0mm 0 W/m2
04:20 38.8 °F /  3.8 °C 36.5 °F /  2.5 °C 29.8in /  1010.5hPa West 6mph /  9.7km/h 12mph /  19.3km/h 91% 0in /  0.0mm 0 W/m2
04:25 39 °F /  3.9 °C 36.7 °F /  2.6 °C 29.9in /  1010.8hPa West 2.9mph /  4.7km/h 8mph /  12.9km/h 91% 0in /  0.0mm 0 W/m2
04:30 39 °F /  3.9 °C 36.7 °F /  2.6 °C 29.8in /  1010.5hPa West 8.1mph /  13km/h 12mph /  19.3km/h 91% 0in /  0.0mm 0 W/m2
04:35 39.2 °F /  4 °C 36.5 °F /  2.5 °C 29.9in /  1010.8hPa WNW 8.1mph /  13km/h 8mph /  12.9km/h 90% 0in /  0.0mm 0 W/m2
04:40 39 °F /  3.9 °C 36.3 °F /  2.4 °C 29.9in /  1010.8hPa WSW 4.9mph /  7.9km/h 9mph /  14.5km/h 90% 0in /  0.0mm 0 W/m2
04:45 39 °F /  3.9 °C 36.3 °F /  2.4 °C 29.9in /  1010.8hPa West 11mph /  17.7km/h 17mph /  27.4km/h 90% 0in /  0.0mm 0 W/m2
04:50 39 °F /  3.9 °C 36.3 °F /  2.4 °C 29.9in /  1010.8hPa West 13mph /  20.9km/h 13mph /  20.9km/h 90% 0in /  0.0mm 0 W/m2
04:55 39 °F /  3.9 °C 36.3 °F /  2.4 °C 29.9in /  1010.8hPa WSW 2mph /  3.2km/h 9mph /  14.5km/h 90% 0in /  0.0mm 0 W/m2
05:00 39 °F /  3.9 °C 36.3 °F /  2.4 °C 29.9in /  1011.2hPa WSW 15mph /  24.1km/h 15mph /  24.1km/h 90% 0in /  0.0mm 0 W/m2
05:05 39 °F /  3.9 °C 36.3 °F /  2.4 °C 29.9in /  1011.2hPa SW 4.9mph /  7.9km/h 13mph /  20.9km/h 90% 0in /  0.0mm 0 W/m2
05:10 39.2 °F /  4 °C 36.5 °F /  2.5 °C 29.9in /  1011.2hPa West 15mph /  24.1km/h 15mph /  24.1km/h 90% 0in /  0.0mm 0 W/m2
05:15 39.4 °F /  4.1 °C 36.7 °F /  2.6 °C 29.9in /  1011.5hPa West 4mph /  6.4km/h 10mph /  16.1km/h 90% 0in /  0.0mm 0 W/m2
05:20 39.2 °F /  4 °C 36.3 °F /  2.4 °C 29.9in /  1011.5hPa WSW 2mph /  3.2km/h 6mph /  9.7km/h 89% 0in /  0.0mm 0 W/m2
05:25 39 °F /  3.9 °C 36.3 °F /  2.4 °C 29.9in /  1011.5hPa WNW 8.1mph /  13km/h 10mph /  16.1km/h 90% 0in /  0.0mm 0 W/m2
05:30 39.2 °F /  4 °C 36.5 °F /  2.5 °C 29.9in /  1011.5hPa WSW 4.9mph /  7.9km/h 10mph /  16.1km/h 90% 0in /  0.0mm 0 W/m2
05:35 39.2 °F /  4 °C 36.3 °F /  2.4 °C 29.9in /  1011.5hPa WNW 11mph /  17.7km/h 11mph /  17.7km/h 89% 0in /  0.0mm 0 W/m2
05:40 39.2 °F /  4 °C 36.3 °F /  2.4 °C 29.9in /  1011.5hPa West 4mph /  6.4km/h 11mph /  17.7km/h 89% 0in /  0.0mm 0 W/m2
05:45 39.2 °F /  4 °C 36.3 °F /  2.4 °C 29.9in /  1011.5hPa WSW 8.9mph /  14.3km/h 11mph /  17.7km/h 89% 0in /  0.0mm 0 W/m2
05:50 39 °F /  3.9 °C 36.1 °F /  2.3 °C 29.9in /  1011.9hPa West 8.9mph /  14.3km/h 9mph /  14.5km/h 89% 0in /  0.0mm 0 W/m2
05:55 39.2 °F /  4 °C 36.3 °F /  2.4 °C 29.9in /  1011.9hPa WSW 4mph /  6.4km/h 7mph /  11.3km/h 89% 0in /  0.0mm 0 W/m2
06:00 39 °F /  3.9 °C 36.1 °F /  2.3 °C 29.9in /  1011.9hPa West 6mph /  9.7km/h 9mph /  14.5km/h 89% 0in /  0.0mm 0 W/m2
06:05 39 °F /  3.9 °C 36.1 °F /  2.3 °C 29.9in /  1011.9hPa West 4mph /  6.4km/h 7mph /  11.3km/h 89% 0in /  0.0mm 0 W/m2
06:10 39.2 °F /  4 °C 36.3 °F /  2.4 °C 29.9in /  1012.2hPa West 8.9mph /  14.3km/h 9mph /  14.5km/h 89% 0in /  0.0mm 0 W/m2
06:15 39.2 °F /  4 °C 36.3 °F /  2.4 °C 29.9in /  1012.2hPa SSW 4mph /  6.4km/h 9mph /  14.5km/h 89% 0in /  0.0mm 0 W/m2
06:20 39 °F /  3.9 °C 36.1 °F /  2.3 °C 29.9in /  1012.2hPa WSW 2.9mph /  4.7km/h 6mph /  9.7km/h 89% 0in /  0.0mm 0 W/m2
06:25 39 °F /  3.9 °C 36.1 °F /  2.3 °C 29.9in /  1012.2hPa SW 2mph /  3.2km/h 9mph /  14.5km/h 89% 0in /  0.0mm 0 W/m2
06:30 39 °F /  3.9 °C 36.3 °F /  2.4 °C 29.9in /  1012.5hPa WSW 4mph /  6.4km/h 4mph /  6.4km/h 90% 0in /  0.0mm 0 W/m2
06:35 39 °F /  3.9 °C 36.3 °F /  2.4 °C 29.9in /  1012.5hPa West 2mph /  3.2km/h 6mph /  9.7km/h 90% 0in /  0.0mm 0 W/m2
06:40 38.8 °F /  3.8 °C 36.1 °F /  2.3 °C 29.9in /  1012.5hPa WSW 2mph /  3.2km/h 5mph /  8km/h 90% 0in /  0.0mm 0 W/m2
06:45 38.8 °F /  3.8 °C 36.1 °F /  2.3 °C 29.9in /  1012.5hPa West 4mph /  6.4km/h 6mph /  9.7km/h 90% 0in /  0.0mm 0 W/m2
06:50 38.8 °F /  3.8 °C 36.1 °F /  2.3 °C 29.9in /  1012.5hPa West 2.9mph /  4.7km/h 3mph /  4.8km/h 90% 0in /  0.0mm 0 W/m2
06:55 38.8 °F /  3.8 °C 36.1 °F /  2.3 °C 29.9in /  1012.9hPa NW 0.9mph /  1.4km/h 3mph /  4.8km/h 90% 0in /  0.0mm 0 W/m2
07:00 38.8 °F /  3.8 °C 36.5 °F /  2.5 °C 29.9in /  1012.5hPa West 2mph /  3.2km/h 6mph /  9.7km/h 91% 0in /  0.0mm 0 W/m2
07:05 38.7 °F /  3.7 °C 36.3 °F /  2.4 °C 29.9in /  1012.9hPa WSW 0.9mph /  1.4km/h 2mph /  3.2km/h 91% 0in /  0.0mm 0 W/m2
07:10 38.7 °F /  3.7 °C 36.3 °F /  2.4 °C 29.9in /  1012.9hPa WNW 2.9mph /  4.7km/h 3mph /  4.8km/h 91% 0in /  0.0mm 0 W/m2
07:15 38.7 °F /  3.7 °C 36.3 °F /  2.4 °C 29.9in /  1012.9hPa Calm   2mph /  3.2km/h 91% 0in /  0.0mm 0 W/m2
07:20 38.7 °F /  3.7 °C 36.3 °F /  2.4 °C 29.9in /  1012.9hPa Calm     91% 0in /  0.0mm 0 W/m2
07:25 38.7 °F /  3.7 °C 36.3 °F /  2.4 °C 29.9in /  1012.9hPa Calm   2mph /  3.2km/h 91% 0in /  0.0mm 0 W/m2
07:30 38.5 °F /  3.6 °C 36.1 °F /  2.3 °C 29.9in /  1012.9hPa ESE 2mph /  3.2km/h 2mph /  3.2km/h 91% 0in /  0.0mm 0 W/m2
07:35 38.5 °F /  3.6 °C 36.1 °F /  2.3 °C 29.9in /  1012.9hPa Calm     91% 0in /  0.0mm 0 W/m2
07:40 38.3 °F /  3.5 °C 36 °F /  2.2 °C 29.9in /  1012.9hPa Calm   4mph /  6.4km/h 91% 0in /  0.0mm 0 W/m2
07:45 38.1 °F /  3.4 °C 36 °F /  2.2 °C 29.9in /  1013.2hPa Calm   2mph /  3.2km/h 92% 0in /  0.0mm 0 W/m2
07:50 38.1 °F /  3.4 °C 36 °F /  2.2 °C 29.9in /  1013.2hPa South 0.9mph /  1.4km/h 3mph /  4.8km/h 92% 0in /  0.0mm 0 W/m2
07:55 38.1 °F /  3.4 °C 36 °F /  2.2 °C 29.9in /  1013.2hPa Calm     92% 0in /  0.0mm 0 W/m2
08:00 37.9 °F /  3.3 °C 35.8 °F /  2.1 °C 29.9in /  1013.2hPa NW 4mph /  6.4km/h 7mph /  11.3km/h 92% 0in /  0.0mm 0 W/m2
08:05 37.9 °F /  3.3 °C 35.8 °F /  2.1 °C 29.9in /  1013.2hPa Calm   2mph /  3.2km/h 92% 0in /  0.0mm 0 W/m2
08:10 37.8 °F /  3.2 °C 35.6 °F /  2 °C 29.9in /  1013.5hPa NW 0.9mph /  1.4km/h 7mph /  11.3km/h 92% 0in /  0.0mm 0 W/m2
08:15 37.8 °F /  3.2 °C 35.6 °F /  2 °C 29.9in /  1013.2hPa WNW 2mph /  3.2km/h 3mph /  4.8km/h 92% 0in /  0.0mm 0 W/m2
08:20 37.8 °F /  3.2 °C 35.6 °F /  2 °C 29.9in /  1013.2hPa West 0.9mph /  1.4km/h 2mph /  3.2km/h 92% 0in /  0.0mm 0 W/m2
08:25 37.6 °F /  3.1 °C 35.4 °F /  1.9 °C 29.9in /  1013.2hPa ESE 0.9mph /  1.4km/h 3mph /  4.8km/h 92% 0in /  0.0mm 5 W/m2
08:30 37.6 °F /  3.1 °C 35.8 °F /  2.1 °C 29.9in /  1013.2hPa WSW 2.9mph /  4.7km/h 3mph /  4.8km/h 93% 0in /  0.0mm 5 W/m2
08:35 37.6 °F /  3.1 °C 35.8 °F /  2.1 °C 29.9in /  1013.5hPa WSW 0.9mph /  1.4km/h 4mph /  6.4km/h 93% 0in /  0.0mm 7 W/m2
08:40 37.6 °F /  3.1 °C 35.8 °F /  2.1 °C 29.9in /  1013.5hPa Calm   3mph /  4.8km/h 93% 0in /  0.0mm 11 W/m2
08:45 37.4 °F /  3 °C 35.6 °F /  2 °C 29.9in /  1013.2hPa SSE 0.9mph /  1.4km/h 5mph /  8km/h 93% 0in /  0.0mm 9 W/m2
08:50 37.6 °F /  3.1 °C 35.8 °F /  2.1 °C 29.9in /  1013.2hPa West 6mph /  9.7km/h 8mph /  12.9km/h 93% 0in /  0.0mm 9 W/m2
08:56 37.6 °F /  3.1 °C 35.8 °F /  2.1 °C 29.9in /  1013.2hPa Calm   2mph /  3.2km/h 93% 0in /  0.0mm 11 W/m2
09:01 37.6 °F /  3.1 °C 35.8 °F /  2.1 °C 29.9in /  1013.2hPa SW 0.9mph /  1.4km/h 8mph /  12.9km/h 93% 0in /  0.0mm 12 W/m2
09:06 37.8 °F /  3.2 °C 36 °F /  2.2 °C 29.9in /  1013.2hPa SW 0.9mph /  1.4km/h 2mph /  3.2km/h 93% 0in /  0.0mm 25 W/m2
09:11 37.8 °F /  3.2 °C 36 °F /  2.2 °C 29.9in /  1013.5hPa West 0.9mph /  1.4km/h 3mph /  4.8km/h 93% 0in /  0.0mm 26 W/m2
09:16 37.8 °F /  3.2 °C 36.1 °F /  2.3 °C 29.9in /  1013.5hPa Calm   2mph /  3.2km/h 94% 0in /  0.0mm 26 W/m2
09:21 37.9 °F /  3.3 °C 36.3 °F /  2.4 °C 29.9in /  1013.2hPa Calm   3mph /  4.8km/h 94% 0in /  0.0mm 39 W/m2
09:26 37.9 °F /  3.3 °C 36.3 °F /  2.4 °C 29.9in /  1013.5hPa Calm   4mph /  6.4km/h 94% 0in /  0.0mm 21 W/m2
09:31 38.1 °F /  3.4 °C 36.5 °F /  2.5 °C 29.9in /  1013.2hPa Calm   4mph /  6.4km/h 94% 0in /  0.0mm 21 W/m2
09:36 38.1 °F /  3.4 °C 36.3 °F /  2.4 °C 29.9in /  1013.2hPa Calm   1mph /  1.6km/h 93% 0in /  0.0mm 21 W/m2
09:41 38.1 °F /  3.4 °C 36.3 °F /  2.4 °C 29.9in /  1013.2hPa North 0.9mph /  1.4km/h 4mph /  6.4km/h 93% 0in /  0.0mm 39 W/m2
09:46 38.1 °F /  3.4 °C 36.3 °F /  2.4 °C 29.9in /  1012.9hPa Calm   1mph /  1.6km/h 93% 0in /  0.0mm 35 W/m2
09:51 38.1 °F /  3.4 °C 36.3 °F /  2.4 °C 29.9in /  1012.9hPa Calm   2mph /  3.2km/h 93% 0in /  0.0mm 37 W/m2
09:56 38.1 °F /  3.4 °C 36.3 °F /  2.4 °C 29.9in /  1012.9hPa Calm     93% 0in /  0.0mm 53 W/m2
10:01 38.1 °F /  3.4 °C 36.3 °F /  2.4 °C 29.9in /  1012.9hPa Calm     93% 0in /  0.0mm 44 W/m2
10:06 38.5 °F /  3.6 °C 36.9 °F /  2.7 °C 29.9in /  1013.2hPa Calm   6mph /  9.7km/h 94% 0in /  0.0mm 54 W/m2
10:11 38.5 °F /  3.6 °C 36.9 °F /  2.7 °C 29.9in /  1013.2hPa Calm   2mph /  3.2km/h 94% 0in /  0.0mm 33 W/m2
10:16 38.7 °F /  3.7 °C 36.9 °F /  2.7 °C 29.9in /  1012.9hPa Calm   3mph /  4.8km/h 93% 0in /  0.0mm 35 W/m2
10:21 38.8 °F /  3.8 °C 37 °F /  2.8 °C 29.9in /  1012.9hPa NNE 0.9mph /  1.4km/h 4mph /  6.4km/h 93% 0in /  0.0mm 44 W/m2
10:26 38.8 °F /  3.8 °C 37 °F /  2.8 °C 29.9in /  1012.9hPa East 2mph /  3.2km/h 6mph /  9.7km/h 93% 0in /  0.0mm 44 W/m2
10:31 38.8 °F /  3.8 °C 37 °F /  2.8 °C 29.9in /  1012.9hPa North 0.9mph /  1.4km/h 2mph /  3.2km/h 93% 0in /  0.0mm 60 W/m2
10:36 39 °F /  3.9 °C 37.2 °F /  2.9 °C 29.9in /  1012.9hPa NE 2.9mph /  4.7km/h 4mph /  6.4km/h 93% 0in /  0.0mm 54 W/m2
10:41 39 °F /  3.9 °C 37.2 °F /  2.9 °C 29.9in /  1012.9hPa North 2mph /  3.2km/h 3mph /  4.8km/h 93% 0in /  0.0mm 39 W/m2
10:46 39.2 °F /  4 °C 37 °F /  2.8 °C 29.9in /  1012.9hPa NW 0.9mph /  1.4km/h 2mph /  3.2km/h 92% 0in /  0.0mm 42 W/m2
10:51 39.4 °F /  4.1 °C 37.2 °F /  2.9 °C 29.9in /  1013.2hPa WNW 2.9mph /  4.7km/h 7mph /  11.3km/h 92% 0in /  0.0mm 56 W/m2
10:56 39.4 °F /  4.1 °C 37.2 °F /  2.9 °C 29.9in /  1012.9hPa West 6.9mph /  11.1km/h 8mph /  12.9km/h 92% 0in /  0.0mm 63 W/m2
11:01 39.4 °F /  4.1 °C 37.2 °F /  2.9 °C 29.9in /  1012.9hPa WNW 2mph /  3.2km/h 4mph /  6.4km/h 92% 0in /  0.0mm 53 W/m2
11:06 39.4 °F /  4.1 °C 37.2 °F /  2.9 °C 29.9in /  1012.9hPa Calm   8mph /  12.9km/h 92% 0in /  0.0mm 62 W/m2
11:11 39.6 °F /  4.2 °C 37.4 °F /  3 °C 29.9in /  1012.9hPa North 0.9mph /  1.4km/h 4mph /  6.4km/h 92% 0in /  0.0mm 81 W/m2
11:16 39.6 °F /  4.2 °C 37.4 °F /  3 °C 29.9in /  1012.9hPa Calm   3mph /  4.8km/h 92% 0in /  0.0mm 47 W/m2
11:21 39.7 °F /  4.3 °C 37.6 °F /  3.1 °C 29.9in /  1012.9hPa Calm   4mph /  6.4km/h 92% 0in /  0.0mm 63 W/m2
11:26 39.7 °F /  4.3 °C 37.6 °F /  3.1 °C 29.9in /  1012.5hPa NNW 2.9mph /  4.7km/h 3mph /  4.8km/h 92% 0in /  0.0mm 105 W/m2
11:31 39.9 °F /  4.4 °C 37.8 °F /  3.2 °C 29.9in /  1012.2hPa East 2mph /  3.2km/h 3mph /  4.8km/h 92% 0in /  0.0mm 95 W/m2
11:36 39.9 °F /  4.4 °C 37.8 °F /  3.2 °C 29.9in /  1012.2hPa NNE 0.9mph /  1.4km/h 4mph /  6.4km/h 92% 0in /  0.0mm 98 W/m2
11:41 40.3 °F /  4.6 °C 37.9 °F /  3.3 °C 29.9in /  1012.2hPa NNW 2mph /  3.2km/h 3mph /  4.8km/h 91% 0in /  0.0mm 88 W/m2
11:46 40.3 °F /  4.6 °C 37.9 °F /  3.3 °C 29.9in /  1012.2hPa Calm   4mph /  6.4km/h 91% 0in /  0.0mm 58 W/m2
11:51 40.3 °F /  4.6 °C 37.9 °F /  3.3 °C 29.9in /  1011.9hPa NNW 0.9mph /  1.4km/h 2mph /  3.2km/h 91% 0in /  0.0mm 53 W/m2
11:56 40.5 °F /  4.7 °C 38.1 °F /  3.4 °C 29.9in /  1011.9hPa NNE 0.9mph /  1.4km/h 1mph /  1.6km/h 91% 0in /  0.0mm 102 W/m2
12:01 40.6 °F /  4.8 °C 38.3 °F /  3.5 °C 29.9in /  1011.9hPa NNW 2mph /  3.2km/h 2mph /  3.2km/h 91% 0in /  0.0mm 104 W/m2
12:06 40.6 °F /  4.8 °C 38.3 °F /  3.5 °C 29.9in /  1011.5hPa SE 0.9mph /  1.4km/h 4mph /  6.4km/h 91% 0in /  0.0mm 83 W/m2
12:11 40.6 °F /  4.8 °C 37.9 °F /  3.3 °C 29.9in /  1011.5hPa North 0.9mph /  1.4km/h 2mph /  3.2km/h 90% 0in /  0.0mm 111 W/m2
12:16 40.8 °F /  4.9 °C 37.8 °F /  3.2 °C 29.9in /  1011.2hPa NE 0.9mph /  1.4km/h 2mph /  3.2km/h 89% 0in /  0.0mm 105 W/m2
12:21 40.8 °F /  4.9 °C 37.6 °F /  3.1 °C 29.9in /  1011.2hPa North 0.9mph /  1.4km/h 5mph /  8km/h 88% 0in /  0.0mm 102 W/m2
12:26 40.8 °F /  4.9 °C 37.6 °F /  3.1 °C 29.9in /  1011.2hPa NNW 2.9mph /  4.7km/h 5mph /  8km/h 88% 0in /  0.0mm 111 W/m2
12:31 41 °F /  5 °C 37.8 °F /  3.2 °C 29.9in /  1011.2hPa Calm   3mph /  4.8km/h 88% 0in /  0.0mm 79 W/m2
12:36 41.2 °F /  5.1 °C 37.6 °F /  3.1 °C 29.9in /  1011.2hPa NE 2mph /  3.2km/h 5mph /  8km/h 87% 0in /  0.0mm 86 W/m2
12:41 41.2 °F /  5.1 °C 37.6 °F /  3.1 °C 29.9in /  1011.2hPa North 0.9mph /  1.4km/h 2mph /  3.2km/h 87% 0in /  0.0mm 84 W/m2
12:46 41.4 °F /  5.2 °C 37.8 °F /  3.2 °C 29.9in /  1011.2hPa North 3mph /  4.8km/h 3mph /  4.8km/h 87% 0in /  0.0mm 67 W/m2
12:51 41.4 °F /  5.2 °C 37.6 °F /  3.1 °C 29.9in /  1010.8hPa NNW 4mph /  6.4km/h 6mph /  9.7km/h 86% 0in /  0.0mm 77 W/m2
12:56 41.4 °F /  5.2 °C 37.6 °F /  3.1 °C 29.9in /  1010.8hPa West 0.9mph /  1.4km/h 5mph /  8km/h 86% 0in /  0.0mm 79 W/m2
13:01 41.4 °F /  5.2 °C 37.6 °F /  3.1 °C 29.9in /  1010.8hPa NNW 2mph /  3.2km/h 6mph /  9.7km/h 86% 0in /  0.0mm 91 W/m2
13:06 41.4 °F /  5.2 °C 37.2 °F /  2.9 °C 29.8in /  1010.5hPa NE 2mph /  3.2km/h 2mph /  3.2km/h 85% 0in /  0.0mm 120 W/m2
13:11 41.5 °F /  5.3 °C 37.4 °F /  3 °C 29.8in /  1010.5hPa ENE 2mph /  3.2km/h 4mph /  6.4km/h 85% 0in /  0.0mm 116 W/m2
13:16 41.5 °F /  5.3 °C 37.4 °F /  3 °C 29.8in /  1010.2hPa NE 2.9mph /  4.7km/h 3mph /  4.8km/h 85% 0in /  0.0mm 105 W/m2
13:21 41.7 °F /  5.4 °C 37.2 °F /  2.9 °C 29.8in /  1010.2hPa WNW 2mph /  3.2km/h 4mph /  6.4km/h 84% 0in /  0.0mm 127 W/m2
13:27 41.7 °F /  5.4 °C 37.6 °F /  3.1 °C 29.8in /  1010.2hPa NE 0.9mph /  1.4km/h 3mph /  4.8km/h 85% 0in /  0.0mm 127 W/m2
13:32 42.1 °F /  5.6 °C 37.9 °F /  3.3 °C 29.8in /  1010.2hPa Calm   2mph /  3.2km/h 85% 0in /  0.0mm 100 W/m2
13:37 42.1 °F /  5.6 °C 37.9 °F /  3.3 °C 29.8in /  1009.8hPa East 4mph /  6.4km/h 4mph /  6.4km/h 85% 0in /  0.0mm 104 W/m2
13:42 42.3 °F /  5.7 °C 37.8 °F /  3.2 °C 29.8in /  1009.8hPa NE 0.9mph /  1.4km/h 2mph /  3.2km/h 84% 0in /  0.0mm 81 W/m2
13:47 42.3 °F /  5.7 °C 38.1 °F /  3.4 °C 29.8in /  1009.8hPa Calm     85% 0in /  0.0mm 97 W/m2
13:52 42.4 °F /  5.8 °C 38.3 °F /  3.5 °C 29.8in /  1009.5hPa ESE 0.9mph /  1.4km/h 4mph /  6.4km/h 85% 0in /  0.0mm 81 W/m2
13:57 42.4 °F /  5.8 °C 38.3 °F /  3.5 °C 29.8in /  1009.5hPa East 4mph /  6.4km/h 4mph /  6.4km/h 85% 0in /  0.0mm 62 W/m2
14:02 42.3 °F /  5.7 °C 38.1 °F /  3.4 °C 29.8in /  1009.1hPa Calm   4mph /  6.4km/h 85% 0in /  0.0mm 70 W/m2
14:07 42.4 °F /  5.8 °C 38.3 °F /  3.5 °C 29.8in /  1008.8hPa SE 2.9mph /  4.7km/h 6mph /  9.7km/h 85% 0in /  0.0mm 98 W/m2
14:12 42.4 °F /  5.8 °C 38.5 °F /  3.6 °C 29.8in /  1008.8hPa Calm   2mph /  3.2km/h 86% 0in /  0.0mm 76 W/m2
14:17 42.4 °F /  5.8 °C 38.5 °F /  3.6 °C 29.8in /  1008.8hPa ESE 2mph /  3.2km/h 6mph /  9.7km/h 86% 0in /  0.0mm 88 W/m2
14:22 42.4 °F /  5.8 °C 38.5 °F /  3.6 °C 29.8in /  1008.8hPa ESE 6mph /  9.7km/h 7mph /  11.3km/h 86% 0in /  0.0mm 76 W/m2
14:27 42.4 °F /  5.8 °C 38.8 °F /  3.8 °C 29.8in /  1008.5hPa East 2mph /  3.2km/h 8mph /  12.9km/h 87% 0in /  0.0mm 86 W/m2
14:32 42.4 °F /  5.8 °C 38.8 °F /  3.8 °C 29.8in /  1008.5hPa ENE 2.9mph /  4.7km/h 6mph /  9.7km/h 87% 0in /  0.0mm 84 W/m2
14:37 42.4 °F /  5.8 °C 38.8 °F /  3.8 °C 29.8in /  1008.5hPa East 4mph /  6.4km/h 9mph /  14.5km/h 87% 0in /  0.0mm 72 W/m2
14:42 42.4 °F /  5.8 °C 39.2 °F /  4 °C 29.8in /  1008.1hPa ENE 2.9mph /  4.7km/h 4mph /  6.4km/h 88% 0in /  0.0mm 54 W/m2
14:47 42.3 °F /  5.7 °C 39 °F /  3.9 °C 29.8in /  1008.1hPa East 0.9mph /  1.4km/h 6mph /  9.7km/h 88% 0in /  0.0mm 46 W/m2
14:52 42.3 °F /  5.7 °C 39 °F /  3.9 °C 29.8in /  1008.1hPa ESE 2.9mph /  4.7km/h 8mph /  12.9km/h 88% 0in /  0.0mm 47 W/m2
14:57 42.3 °F /  5.7 °C 39 °F /  3.9 °C 29.8in /  1008.1hPa ESE 2mph /  3.2km/h 5mph /  8km/h 88% 0in /  0.0mm 62 W/m2
15:02 42.3 °F /  5.7 °C 39 °F /  3.9 °C 29.8in /  1007.8hPa East 2.9mph /  4.7km/h 8mph /  12.9km/h 88% 0in /  0.0mm 54 W/m2
15:07 42.3 °F /  5.7 °C 39 °F /  3.9 °C 29.8in /  1007.8hPa ENE 2.9mph /  4.7km/h 8mph /  12.9km/h 88% 0in /  0.0mm 53 W/m2
15:12 42.3 °F /  5.7 °C 38.7 °F /  3.7 °C 29.8in /  1007.5hPa ENE 4mph /  6.4km/h 6mph /  9.7km/h 87% 0in /  0.0mm 49 W/m2
15:17 42.1 °F /  5.6 °C 38.5 °F /  3.6 °C 29.8in /  1007.5hPa ESE 10.1mph /  16.3km/h 10mph /  16.1km/h 87% 0in /  0.0mm 42 W/m2
15:22 42.1 °F /  5.6 °C 38.1 °F /  3.4 °C 29.8in /  1007.5hPa ESE 8.1mph /  13km/h 13mph /  20.9km/h 86% 0in /  0.0mm 42 W/m2
15:27 42.1 °F /  5.6 °C 38.1 °F /  3.4 °C 29.8in /  1007.5hPa ESE 2.9mph /  4.7km/h 6mph /  9.7km/h 86% 0in /  0.0mm 35 W/m2
15:32 42.1 °F /  5.6 °C 38.1 °F /  3.4 °C 29.8in /  1007.5hPa ENE 4.9mph /  7.9km/h 8mph /  12.9km/h 86% 0in /  0.0mm 32 W/m2
15:37 42.1 °F /  5.6 °C 38.1 °F /  3.4 °C 29.8in /  1007.5hPa ESE 4mph /  6.4km/h 15mph /  24.1km/h 86% 0in /  0.0mm 23 W/m2
15:42 41.9 °F /  5.5 °C 37.8 °F /  3.2 °C 29.8in /  1007.5hPa ESE 8.1mph /  13km/h 11mph /  17.7km/h 85% 0in /  0.0mm 26 W/m2
15:47 41.9 °F /  5.5 °C 37.9 °F /  3.3 °C 29.7in /  1007.1hPa ESE 4mph /  6.4km/h 15mph /  24.1km/h 86% 0in /  0.0mm 26 W/m2
15:52 41.9 °F /  5.5 °C 37.9 °F /  3.3 °C 29.7in /  1007.1hPa East 2.9mph /  4.7km/h 7mph /  11.3km/h 86% 0in /  0.0mm 30 W/m2
15:57 41.7 °F /  5.4 °C 37.6 °F /  3.1 °C 29.7in /  1006.8hPa East 6.9mph /  11.1km/h 11mph /  17.7km/h 85% 0in /  0.0mm 30 W/m2
16:02 41.7 °F /  5.4 °C 37.6 °F /  3.1 °C 29.7in /  1007.1hPa ENE 4mph /  6.4km/h 11mph /  17.7km/h 85% 0in /  0.0mm 21 W/m2
16:07 41.5 °F /  5.3 °C 37.4 °F /  3 °C 29.7in /  1006.8hPa ESE 4mph /  6.4km/h 9mph /  14.5km/h 85% 0in /  0.0mm 16 W/m2
16:12 41.4 °F /  5.2 °C 37.2 °F /  2.9 °C 29.7in /  1006.8hPa ESE 8.1mph /  13km/h 11mph /  17.7km/h 85% 0in /  0.0mm 14 W/m2
16:17 41.4 °F /  5.2 °C 37.2 °F /  2.9 °C 29.7in /  1006.8hPa ESE 6.9mph /  11.1km/h 10mph /  16.1km/h 85% 0in /  0.0mm 11 W/m2
16:22 41.2 °F /  5.1 °C 37 °F /  2.8 °C 29.7in /  1006.8hPa East 0.9mph /  1.4km/h 11mph /  17.7km/h 85% 0in /  0.0mm 7 W/m2
16:27 41.2 °F /  5.1 °C 37 °F /  2.8 °C 29.7in /  1006.4hPa NE 2mph /  3.2km/h 6mph /  9.7km/h 85% 0in /  0.0mm 5 W/m2
16:32 41 °F /  5 °C 36.9 °F /  2.7 °C 29.7in /  1006.4hPa East 2mph /  3.2km/h 7mph /  11.3km/h 85% 0in /  0.0mm 0 W/m2
16:37 40.8 °F /  4.9 °C 36.7 °F /  2.6 °C 29.7in /  1006.4hPa SSE 2mph /  3.2km/h 5mph /  8km/h 85% 0in /  0.0mm 0 W/m2
16:42 40.6 °F /  4.8 °C 36.9 °F /  2.7 °C 29.7in /  1006.4hPa East 2.9mph /  4.7km/h 4mph /  6.4km/h 86% 0in /  0.0mm 0 W/m2
16:47 40.5 °F /  4.7 °C 36.7 °F /  2.6 °C 29.7in /  1006.4hPa ENE 2mph /  3.2km/h 4mph /  6.4km/h 86% 0in /  0.0mm 0 W/m2
16:52 40.5 °F /  4.7 °C 36.7 °F /  2.6 °C 29.7in /  1006.1hPa ENE 0.9mph /  1.4km/h 4mph /  6.4km/h 86% 0in /  0.0mm 0 W/m2
16:57 40.5 °F /  4.7 °C 36.7 °F /  2.6 °C 29.7in /  1006.1hPa ENE 2mph /  3.2km/h 3mph /  4.8km/h 86% 0in /  0.0mm 0 W/m2
17:02 40.5 °F /  4.7 °C 36.7 °F /  2.6 °C 29.7in /  1006.1hPa NE 0.9mph /  1.4km/h 1mph /  1.6km/h 86% 0in /  0.0mm 0 W/m2
17:07 40.5 °F /  4.7 °C 36.9 °F /  2.7 °C 29.7in /  1006.1hPa ENE 4mph /  6.4km/h 4mph /  6.4km/h 87% 0in /  0.0mm 0 W/m2
17:12 40.5 °F /  4.7 °C 36.9 °F /  2.7 °C 29.7in /  1006.1hPa East 2.9mph /  4.7km/h 8mph /  12.9km/h 87% 0in /  0.0mm 0 W/m2
17:17 40.5 °F /  4.7 °C 36.9 °F /  2.7 °C 29.7in /  1006.1hPa ESE 2mph /  3.2km/h 4mph /  6.4km/h 87% 0in /  0.0mm 0 W/m2
17:22 40.6 °F /  4.8 °C 37 °F /  2.8 °C 29.7in /  1005.8hPa East 2mph /  3.2km/h 9mph /  14.5km/h 87% 0in /  0.0mm 0 W/m2
17:27 40.6 °F /  4.8 °C 37 °F /  2.8 °C 29.7in /  1005.8hPa East 0.9mph /  1.4km/h 6mph /  9.7km/h 87% 0in /  0.0mm 0 W/m2
17:32 40.6 °F /  4.8 °C 37 °F /  2.8 °C 29.7in /  1005.4hPa ESE 2.9mph /  4.7km/h 9mph /  14.5km/h 87% 0in /  0.0mm 0 W/m2
17:37 40.8 °F /  4.9 °C 37.2 °F /  2.9 °C 29.7in /  1005.1hPa East 4mph /  6.4km/h 7mph /  11.3km/h 87% 0in /  0.0mm 0 W/m2
17:42 40.8 °F /  4.9 °C 37.2 °F /  2.9 °C 29.7in /  1005.1hPa ENE 2mph /  3.2km/h 9mph /  14.5km/h 87% 0in /  0.0mm 0 W/m2
17:47 40.8 °F /  4.9 °C 37.2 °F /  2.9 °C 29.7in /  1005.1hPa East 4mph /  6.4km/h 7mph /  11.3km/h 87% 0in /  0.0mm 0 W/m2
17:52 40.8 °F /  4.9 °C 37.6 °F /  3.1 °C 29.7in /  1004.7hPa East 2mph /  3.2km/h 3mph /  4.8km/h 88% 0in /  0.0mm 0 W/m2
17:57 40.8 °F /  4.9 °C 37.6 °F /  3.1 °C 29.7in /  1004.7hPa SE 2.9mph /  4.7km/h 6mph /  9.7km/h 88% 0in /  0.0mm 0 W/m2
18:02 40.8 °F /  4.9 °C 37.6 °F /  3.1 °C 29.7in /  1004.4hPa ENE 2mph /  3.2km/h 3mph /  4.8km/h 88% 0in /  0.0mm 0 W/m2
18:07 40.6 °F /  4.8 °C 37.4 °F /  3 °C 29.7in /  1004.4hPa ENE 0.9mph /  1.4km/h 4mph /  6.4km/h 88% 0in /  0.0mm 0 W/m2
18:12 40.8 °F /  4.9 °C 37.8 °F /  3.2 °C 29.7in /  1004.4hPa East 2mph /  3.2km/h 3mph /  4.8km/h 89% 0in /  0.0mm 0 W/m2
18:17 40.6 °F /  4.8 °C 37.6 °F /  3.1 °C 29.7in /  1004.1hPa East 2mph /  3.2km/h 6mph /  9.7km/h 89% 0in /  0.0mm 0 W/m2
18:22 40.6 °F /  4.8 °C 37.6 °F /  3.1 °C 29.7in /  1004.1hPa ESE 2.9mph /  4.7km/h 8mph /  12.9km/h 89% 0in /  0.0mm 0 W/m2
18:27 40.5 °F /  4.7 °C 37.4 °F /  3 °C 29.7in /  1004.1hPa Calm   6mph /  9.7km/h 89% 0in /  0.0mm 0 W/m2
18:32 40.5 °F /  4.7 °C 37.4 °F /  3 °C 29.6in /  1003.7hPa East 4.9mph /  7.9km/h 7mph /  11.3km/h 89% 0in /  0.0mm 0 W/m2
18:37 40.5 °F /  4.7 °C 37.4 °F /  3 °C 29.6in /  1003.7hPa ENE 0.9mph /  1.4km/h 7mph /  11.3km/h 89% 0in /  0.0mm 0 W/m2
18:42 40.5 °F /  4.7 °C 37.8 °F /  3.2 °C 29.6in /  1003.4hPa ENE 2.9mph /  4.7km/h 4mph /  6.4km/h 90% 0in /  0.0mm 0 W/m2
18:47 40.5 °F /  4.7 °C 37.8 °F /  3.2 °C 29.6in /  1003.0hPa ESE 2.9mph /  4.7km/h 8mph /  12.9km/h 90% 0in /  0.0mm 0 W/m2
18:52 40.5 °F /  4.7 °C 37.8 °F /  3.2 °C 29.6in /  1002.7hPa ENE 0.9mph /  1.4km/h 8mph /  12.9km/h 90% 0in /  0.0mm 0 W/m2
18:57 40.3 °F /  4.6 °C 37.6 °F /  3.1 °C 29.6in /  1002.7hPa East 4mph /  6.4km/h 4mph /  6.4km/h 90% 0in /  0.0mm 0 W/m2
19:02 40.3 °F /  4.6 °C 37.6 °F /  3.1 °C 29.6in /  1002.4hPa East 6mph /  9.7km/h 9mph /  14.5km/h 90% 0in /  0.0mm 0 W/m2
19:07 40.3 °F /  4.6 °C 37.2 °F /  2.9 °C 29.6in /  1002.4hPa ENE 4mph /  6.4km/h 8mph /  12.9km/h 89% 0in /  0.0mm 0 W/m2
19:12 40.3 °F /  4.6 °C 37.2 °F /  2.9 °C 29.6in /  1002.0hPa East 4mph /  6.4km/h 9mph /  14.5km/h 89% 0in /  0.0mm 0 W/m2
19:17 40.3 °F /  4.6 °C 37.2 °F /  2.9 °C 29.6in /  1002.0hPa SE 2mph /  3.2km/h 9mph /  14.5km/h 89% 0in /  0.0mm 0 W/m2
19:22 40.3 °F /  4.6 °C 37 °F /  2.8 °C 29.6in /  1002.0hPa ENE 2mph /  3.2km/h 7mph /  11.3km/h 88% 0in /  0.0mm 0 W/m2
19:27 40.3 °F /  4.6 °C 37 °F /  2.8 °C 29.6in /  1002.0hPa East 8.1mph /  13km/h 9mph /  14.5km/h 88% 0in /  0.0mm 0 W/m2
19:32 40.3 °F /  4.6 °C 37 °F /  2.8 °C 29.6in /  1001.7hPa ESE 0.9mph /  1.4km/h 6mph /  9.7km/h 88% 0in /  0.0mm 0 W/m2
19:37 40.3 °F /  4.6 °C 37 °F /  2.8 °C 29.6in /  1001.4hPa East 4mph /  6.4km/h 9mph /  14.5km/h 88% 0in /  0.0mm 0 W/m2
19:42 40.3 °F /  4.6 °C 37 °F /  2.8 °C 29.6in /  1001.7hPa ENE 2mph /  3.2km/h 3mph /  4.8km/h 88% 0in /  0.0mm 0 W/m2
19:47 40.3 °F /  4.6 °C 37 °F /  2.8 °C 29.6in /  1001.4hPa SE 2mph /  3.2km/h 5mph /  8km/h 88% 0in /  0.0mm 0 W/m2
19:52 40.3 °F /  4.6 °C 37 °F /  2.8 °C 29.6in /  1001.4hPa East 6.9mph /  11.1km/h 7mph /  11.3km/h 88% 0in /  0.0mm 0 W/m2
19:57 40.3 °F /  4.6 °C 37 °F /  2.8 °C 29.6in /  1001.4hPa SE 0.9mph /  1.4km/h 3mph /  4.8km/h 88% 0in /  0.0mm 0 W/m2
20:02 40.3 °F /  4.6 °C 36.7 °F /  2.6 °C 29.6in /  1001.4hPa NE 2.9mph /  4.7km/h 11mph /  17.7km/h 87% 0in /  0.0mm 0 W/m2
20:07 40.5 °F /  4.7 °C 36.9 °F /  2.7 °C 29.6in /  1001.4hPa ESE 2.9mph /  4.7km/h 5mph /  8km/h 87% 0in /  0.0mm 0 W/m2
20:12 40.5 °F /  4.7 °C 36.7 °F /  2.6 °C 29.6in /  1001.0hPa East 2mph /  3.2km/h 11mph /  17.7km/h 86% 0in /  0.0mm 0 W/m2
20:17 40.6 °F /  4.8 °C 36.9 °F /  2.7 °C 29.6in /  1001.0hPa East 2.9mph /  4.7km/h 5mph /  8km/h 86% 0in /  0.0mm 0 W/m2
20:22 40.6 °F /  4.8 °C 36.5 °F /  2.5 °C 29.6in /  1001.0hPa ESE 2.9mph /  4.7km/h 8mph /  12.9km/h 85% 0in /  0.0mm 0 W/m2
20:27 40.6 °F /  4.8 °C 36.5 °F /  2.5 °C 29.6in /  1000.7hPa ESE 6.9mph /  11.1km/h 8mph /  12.9km/h 85% 0in /  0.0mm 0 W/m2
20:32 40.6 °F /  4.8 °C 36.5 °F /  2.5 °C 29.6in /  1000.7hPa ENE 4.9mph /  7.9km/h 8mph /  12.9km/h 85% 0in /  0.0mm 0 W/m2
20:37 40.6 °F /  4.8 °C 36.1 °F /  2.3 °C 29.6in /  1000.7hPa ESE 4.9mph /  7.9km/h 9mph /  14.5km/h 84% 0in /  0.0mm 0 W/m2
20:42 40.6 °F /  4.8 °C 36.1 °F /  2.3 °C 29.5in /  1000.3hPa ESE 6mph /  9.7km/h 7mph /  11.3km/h 84% 0in /  0.0mm 0 W/m2
20:47 40.6 °F /  4.8 °C 36.1 °F /  2.3 °C 29.5in /  1000.3hPa SE 6.9mph /  11.1km/h 10mph /  16.1km/h 84% 0in /  0.0mm 0 W/m2
20:52 40.6 °F /  4.8 °C 36.1 °F /  2.3 °C 29.5in /  1000.3hPa ENE 2.9mph /  4.7km/h 8mph /  12.9km/h 84% 0in /  0.0mm 0 W/m2
20:57 40.6 °F /  4.8 °C 36.1 °F /  2.3 °C 29.5in /  1000.3hPa ENE 2.9mph /  4.7km/h 6mph /  9.7km/h 84% 0in /  0.0mm 0 W/m2
21:02 40.6 °F /  4.8 °C 36.1 °F /  2.3 °C 29.5in /  1000.0hPa East 2mph /  3.2km/h 4mph /  6.4km/h 84% 0in /  0.0mm 0 W/m2
21:07 40.6 °F /  4.8 °C 36.1 °F /  2.3 °C 29.5in /  1000.0hPa ESE 8.1mph /  13km/h 8mph /  12.9km/h 84% 0in /  0.0mm 0 W/m2
21:12 40.5 °F /  4.7 °C 36.3 °F /  2.4 °C 29.5in /  1000.0hPa East 2.9mph /  4.7km/h 3mph /  4.8km/h 85% 0in /  0.0mm 0 W/m2
21:17 40.5 °F /  4.7 °C 36.3 °F /  2.4 °C 29.5in /  999.7hPa ENE 2.9mph /  4.7km/h 5mph /  8km/h 85% 0in /  0.0mm 0 W/m2
21:22 40.3 °F /  4.6 °C 36.1 °F /  2.3 °C 29.5in /  999.7hPa NE 2mph /  3.2km/h 9mph /  14.5km/h 85% 0in /  0.0mm 0 W/m2
21:28 40.3 °F /  4.6 °C 36.5 °F /  2.5 °C 29.5in /  999.7hPa ENE 0.9mph /  1.4km/h 2mph /  3.2km/h 86% 0in /  0.0mm 0 W/m2
21:33 40.3 °F /  4.6 °C 36.5 °F /  2.5 °C 29.5in /  999.7hPa East 0.9mph /  1.4km/h 9mph /  14.5km/h 86% 0in /  0.0mm 0 W/m2
21:38 40.3 °F /  4.6 °C 36.5 °F /  2.5 °C 29.5in /  999.3hPa NE 2mph /  3.2km/h 6mph /  9.7km/h 86% 0in /  0.0mm 0 W/m2
21:43 40.1 °F /  4.5 °C 36.3 °F /  2.4 °C 29.5in /  999.3hPa ENE 2mph /  3.2km/h 4mph /  6.4km/h 86% 0in /  0.0mm 0 W/m2
21:48 40.1 °F /  4.5 °C 36.3 °F /  2.4 °C 29.5in /  999.3hPa East 4mph /  6.4km/h 4mph /  6.4km/h 86% 0in /  0.0mm 0 W/m2
21:53 40.3 °F /  4.6 °C 36.5 °F /  2.5 °C 29.5in /  999.3hPa East 2mph /  3.2km/h 7mph /  11.3km/h 86% 0in /  0.0mm 0 W/m2
21:58 40.1 °F /  4.5 °C 36.5 °F /  2.5 °C 29.5in /  999.0hPa East 4.9mph /  7.9km/h 5mph /  8km/h 87% 0in /  0.0mm 0 W/m2
22:03 39.9 °F /  4.4 °C 36.3 °F /  2.4 °C 29.5in /  998.6hPa SE 2mph /  3.2km/h 7mph /  11.3km/h 87% 0.01in /  0.2mm 0 W/m2
22:08 39.9 °F /  4.4 °C 36.7 °F /  2.6 °C 29.5in /  998.3hPa ENE 0.9mph /  1.4km/h 5mph /  8km/h 88% 0.01in /  0.2mm 0 W/m2
22:13 39.7 °F /  4.3 °C 36.5 °F /  2.5 °C 29.5in /  998.3hPa East 4.9mph /  7.9km/h 7mph /  11.3km/h 88% 0.01in /  0.2mm 0 W/m2
22:18 39.7 °F /  4.3 °C 36.7 °F /  2.6 °C 29.5in /  998.0hPa ESE 2.9mph /  4.7km/h 7mph /  11.3km/h 89% 0.01in /  0.2mm 0 W/m2
22:23 39.6 °F /  4.2 °C 36.5 °F /  2.5 °C 29.5in /  998.0hPa ENE 6mph /  9.7km/h 10mph /  16.1km/h 89% 0.01in /  0.2mm 0 W/m2
22:28 39.6 °F /  4.2 °C 36.9 °F /  2.7 °C 29.5in /  998.0hPa ESE 4mph /  6.4km/h 7mph /  11.3km/h 90% 0.01in /  0.2mm 0 W/m2
22:33 39.4 °F /  4.1 °C 36.7 °F /  2.6 °C 29.5in /  997.6hPa East 2mph /  3.2km/h 6mph /  9.7km/h 90% 0.02in /  0.5mm 0 W/m2
22:38 39.4 °F /  4.1 °C 36.7 °F /  2.6 °C 29.5in /  997.6hPa Calm   7mph /  11.3km/h 90% 0.02in /  0.5mm 0 W/m2
22:43 39.4 °F /  4.1 °C 36.7 °F /  2.6 °C 29.5in /  997.3hPa ENE 2.9mph /  4.7km/h 5mph /  8km/h 90% 0.02in /  0.5mm 0 W/m2
22:48 39.4 °F /  4.1 °C 37 °F /  2.8 °C 29.5in /  997.3hPa ESE 0.9mph /  1.4km/h 4mph /  6.4km/h 91% 0.02in /  0.5mm 0 W/m2
22:53 39.4 °F /  4.1 °C 37 °F /  2.8 °C 29.4in /  997.0hPa ENE 4mph /  6.4km/h 6mph /  9.7km/h 91% 0.02in /  0.5mm 0 W/m2
22:58 39.6 °F /  4.2 °C 36.9 °F /  2.7 °C 29.4in /  997.0hPa East 8.9mph /  14.3km/h 9mph /  14.5km/h 90% 0.02in /  0.5mm 0 W/m2
23:03 39.7 °F /  4.3 °C 37 °F /  2.8 °C 29.4in /  997.0hPa East 4mph /  6.4km/h 9mph /  14.5km/h 90% 0.01in /  0.2mm 0 W/m2
23:08 39.7 °F /  4.3 °C 37 °F /  2.8 °C 29.4in /  997.0hPa NE 2.9mph /  4.7km/h 7mph /  11.3km/h 90% 0.01in /  0.2mm 0 W/m2
23:13 39.9 °F /  4.4 °C 37.6 °F /  3.1 °C 29.4in /  997.0hPa East 11mph /  17.7km/h 11mph /  17.7km/h 91% 0.01in /  0.2mm 0 W/m2
23:18 39.9 °F /  4.4 °C 37.6 °F /  3.1 °C 29.4in /  997.0hPa ESE 2.9mph /  4.7km/h 9mph /  14.5km/h 91% 0.02in /  0.5mm 0 W/m2
23:23 39.7 °F /  4.3 °C 37.6 °F /  3.1 °C 29.4in /  997.0hPa ESE 2.9mph /  4.7km/h 9mph /  14.5km/h 92% 0.02in /  0.5mm 0 W/m2
23:28 39.7 °F /  4.3 °C 37.6 °F /  3.1 °C 29.4in /  996.6hPa ESE 2mph /  3.2km/h 8mph /  12.9km/h 92% 0.03in /  0.8mm 0 W/m2
23:33 39.7 °F /  4.3 °C 37.6 °F /  3.1 °C 29.4in /  996.6hPa ESE 4mph /  6.4km/h 7mph /  11.3km/h 92% 0.02in /  0.5mm 0 W/m2
23:38 39.6 °F /  4.2 °C 37.8 °F /  3.2 °C 29.4in /  996.6hPa ENE 2.9mph /  4.7km/h 4mph /  6.4km/h 93% 0.02in /  0.5mm 0 W/m2
23:43 39.7 °F /  4.3 °C 37.9 °F /  3.3 °C 29.4in /  996.6hPa ESE 0.9mph /  1.4km/h 5mph /  8km/h 93% 0.02in /  0.5mm 0 W/m2
23:48 39.7 °F /  4.3 °C 37.9 °F /  3.3 °C 29.4in /  996.6hPa ENE 2.9mph /  4.7km/h 6mph /  9.7km/h 93% 0.02in /  0.5mm 0 W/m2
23:53 39.7 °F /  4.3 °C 38.1 °F /  3.4 °C 29.4in /  996.6hPa ENE 4mph /  6.4km/h 4mph /  6.4km/h 94% 0.02in /  0.5mm 0 W/m2
23:58 39.9 °F /  4.4 °C 38.3 °F /  3.5 °C 29.4in /  997.0hPa East 4.9mph /  7.9km/h 6mph /  9.7km/h 94% 0.03in /  0.8mm 0 W/m2
Juneau County Weather
Compliments of Weather Underground - 4 mb